Terminal Aerodrome Forecast
Issued by NWS

Home | Current Version | Previous Version | Text Only | Print | Product List | Glossary On
Versions: 1 2 3 4 5 6 7 8 9 10 11 12 13 14 15 16 17
000
FTUS42 KTBW 281738
TAFPGD
TAF
KPGD 281738Z 2818/2918 VRB05KT P6SM VCTS BKN040CB
     FM282000 03006KT P6SM VCTS SCT025CB BKN050
     FM282300 08007KT P6SM VCTS SCT025CB BKN050
     FM290200 08004KT P6SM SCT050 BKN250
     FM291400 12006KT P6SM SCT030 BKN250
     FM291700 13006KT P6SM BKN040=

USA.gov is the U.S. government's official web portal to all federal, state and local government web resources and services.